Time;durP1;ratioP1;P1;durP2;ratioP2;P2;SDS_P1;SDS_P2;PMS_P1;PMS_P2;Temp;Humidity;BMP_temperature;BMP_pressure;BME280_temperature;BME280_humidity;BME280_pressure;Samples;Min_cycle;Max_cycle;Signal;HPM_P1;HPM_P2
2022/03/14 00:01:34;;;;;;;1.90;1.45;;;12.30;99.60;;;;;;4900028;29;20064;-89
2022/03/14 00:03:59;;;;;;;1.88;1.33;;;12.30;99.40;;;;;;4899416;29;20029;-89
2022/03/14 00:06:26;;;;;;;3.65;1.55;;;12.30;99.70;;;;;;4898217;29;20036;-88
2022/03/14 00:08:55;;;;;;;3.67;1.40;;;12.30;99.50;;;;;;4897811;29;20387;-90
2022/03/14 00:11:23;;;;;;;1.60;1.20;;;12.30;99.50;;;;;;4898876;29;20048;-88
2022/03/14 00:13:50;;;;;;;2.38;1.23;;;12.30;99.70;;;;;;4899376;29;20039;-89
2022/03/14 00:16:25;;;;;;;1.85;1.38;;;12.30;99.50;;;;;;4898385;29;20483;-87
2022/03/14 00:18:53;;;;;;;2.55;1.20;;;12.30;99.70;;;;;;4899500;29;20399;-89
2022/03/14 00:21:23;;;;;;;2.13;1.40;;;12.30;99.90;;;;;;4899459;29;20096;-88
2022/03/14 00:23:52;;;;;;;1.90;1.23;;;12.20;99.90;;;;;;4888558;29;20052;-86
2022/03/14 00:26:19;;;;;;;1.92;1.20;;;12.20;99.90;;;;;;4915159;29;20037;-84
2022/03/14 00:28:45;;;;;;;2.00;1.17;;;12.20;99.90;;;;;;4911882;29;20070;-88
2022/03/14 00:31:11;;;;;;;1.67;1.15;;;12.20;99.90;;;;;;4911074;29;20028;-89
2022/03/14 00:33:39;;;;;;;2.20;1.15;;;12.20;99.90;;;;;;4918386;29;20104;-85
2022/03/14 00:36:06;;;;;;;1.30;1.00;;;12.20;99.90;;;;;;4920453;29;20093;-85
2022/03/14 00:38:32;;;;;;;2.00;1.23;;;12.20;99.90;;;;;;4919410;29;20033;-86
2022/03/14 00:40:59;;;;;;;1.58;1.05;;;12.10;99.90;;;;;;4900070;29;20048;-84
2022/03/14 00:43:25;;;;;;;1.83;1.15;;;12.10;99.90;;;;;;4917294;29;20121;-86
2022/03/14 00:45:50;;;;;;;1.58;1.10;;;12.10;99.90;;;;;;4912548;29;20049;-85
2022/03/14 00:48:16;;;;;;;1.60;1.13;;;12.10;99.90;;;;;;4913900;29;20053;-83
2022/03/14 00:50:42;;;;;;;2.05;1.13;;;12.10;99.90;;;;;;4910786;29;20044;-84
2022/03/14 00:53:08;;;;;;;2.05;1.23;;;12.10;99.90;;;;;;4909459;29;20073;-84
2022/03/14 00:55:34;;;;;;;2.08;1.17;;;12.00;99.90;;;;;;4903805;29;20033;-87
2022/03/14 00:57:59;;;;;;;1.23;0.75;;;12.00;99.90;;;;;;4903683;29;20048;-89
2022/03/14 01:00:25;;;;;;;1.90;1.02;;;12.00;99.90;;;;;;4901727;29;20045;-85
2022/03/14 01:02:51;;;;;;;1.85;1.00;;;12.10;99.90;;;;;;4902462;29;20044;-89
2022/03/14 01:05:17;;;;;;;1.63;1.08;;;12.00;99.90;;;;;;4901036;29;20074;-88
2022/03/14 01:07:43;;;;;;;1.55;1.05;;;12.00;99.90;;;;;;4900989;29;20143;-88
2022/03/14 01:10:09;;;;;;;2.67;1.42;;;12.00;99.90;;;;;;4902409;29;20488;-88
2022/03/14 01:12:35;;;;;;;1.90;1.17;;;12.00;99.90;;;;;;4900971;29;20608;-88
2022/03/14 01:15:01;;;;;;;2.10;1.40;;;11.90;99.90;;;;;;4900981;29;20044;-86
2022/03/14 01:17:27;;;;;;;3.65;1.40;;;11.90;99.90;;;;;;4900963;29;20502;-88
2022/03/14 01:19:53;;;;;;;2.55;1.42;;;11.90;99.90;;;;;;4885684;29;20770;-87
2022/03/14 01:22:19;;;;;;;1.90;1.30;;;11.80;99.90;;;;;;4901142;29;20127;-87
2022/03/14 01:24:45;;;;;;;1.80;1.30;;;11.80;99.90;;;;;;4900936;29;20129;-87
2022/03/14 01:27:11;;;;;;;1.58;1.10;;;11.80;99.90;;;;;;4901030;29;20620;-87
2022/03/14 01:29:38;;;;;;;2.13;1.33;;;11.80;99.90;;;;;;4902112;29;20033;-87
2022/03/14 01:32:05;;;;;;;3.67;1.40;;;11.70;99.90;;;;;;4902056;29;20039;-88
2022/03/14 01:34:32;;;;;;;1.85;1.42;;;11.80;99.90;;;;;;4900937;29;20032;-87
2022/03/14 01:36:58;;;;;;;2.08;1.20;;;11.70;99.90;;;;;;4901280;29;20452;-87
2022/03/14 01:39:24;;;;;;;2.42;1.30;;;11.70;99.90;;;;;;4902204;29;20037;-87
2022/03/14 01:41:51;;;;;;;2.28;1.50;;;11.70;99.90;;;;;;4885333;29;20116;-88
2022/03/14 01:44:17;;;;;;;3.22;1.90;;;11.70;99.90;;;;;;4900394;29;20048;-87
2022/03/14 01:46:43;;;;;;;2.40;1.40;;;11.60;99.90;;;;;;4901086;29;20048;-88
2022/03/14 01:49:11;;;;;;;2.58;1.77;;;11.60;99.90;;;;;;4901885;29;20173;-87
2022/03/14 01:51:39;;;;;;;3.05;1.80;;;11.60;99.90;;;;;;4901830;29;20041;-86
2022/03/14 01:54:05;;;;;;;2.92;1.73;;;11.60;99.90;;;;;;4903441;29;20036;-87
2022/03/14 01:56:31;;;;;;;3.90;1.90;;;11.60;99.90;;;;;;4904342;29;20031;-87
2022/03/14 01:58:58;;;;;;;2.70;1.95;;;11.60;99.90;;;;;;4906340;29;20037;-85
2022/03/14 02:01:23;;;;;;;2.92;1.65;;;11.60;99.90;;;;;;4905029;29;20216;-85
2022/03/14 02:03:51;;;;;;;2.80;1.70;;;11.60;99.90;;;;;;4905227;29;20053;-88
2022/03/14 02:06:18;;;;;;;2.85;1.92;;;11.60;99.90;;;;;;4902829;29;20036;-88
2022/03/14 02:08:44;;;;;;;2.95;1.88;;;11.60;99.90;;;;;;4901480;29;20052;-87
2022/03/14 02:11:10;;;;;;;3.10;2.08;;;11.60;99.90;;;;;;4903339;29;20099;-87
2022/03/14 02:13:36;;;;;;;2.92;1.92;;;11.50;99.90;;;;;;4902457;29;20324;-87
2022/03/14 02:16:01;;;;;;;2.90;2.15;;;11.50;99.90;;;;;;4885718;29;20109;-87
2022/03/14 02:18:27;;;;;;;2.90;1.90;;;11.50;99.90;;;;;;4900906;29;20036;-88
2022/03/14 02:20:53;;;;;;;3.08;2.03;;;11.50;99.90;;;;;;4901451;29;20407;-86
2022/03/14 02:23:19;;;;;;;2.85;2.10;;;11.50;99.90;;;;;;4900683;29;20107;-86
2022/03/14 02:25:55;;;;;;;3.88;2.22;;;11.50;99.90;;;;;;4901779;29;20571;-87
2022/03/14 02:28:22;;;;;;;3.15;2.10;;;11.60;99.90;;;;;;4901582;29;20074;-87
2022/03/14 02:30:53;;;;;;;3.33;2.05;;;11.60;99.90;;;;;;4899537;29;20452;-86
2022/03/14 02:33:20;;;;;;;3.50;2.30;;;11.60;99.90;;;;;;4899493;29;20028;-86
2022/03/14 02:35:46;;;;;;;3.45;2.40;;;11.50;99.90;;;;;;4883957;29;20437;-88
2022/03/14 02:38:15;;;;;;;3.72;2.50;;;11.60;99.90;;;;;;4900843;29;20029;-86
2022/03/14 02:40:46;;;;;;;3.40;2.50;;;11.50;99.90;;;;;;4899392;29;20044;-88
2022/03/14 02:43:14;;;;;;;4.00;2.50;;;11.50;99.90;;;;;;4883502;29;20120;-86
2022/03/14 02:45:41;;;;;;;3.85;2.35;;;11.50;99.90;;;;;;4899424;29;20420;-87
2022/03/14 02:48:07;;;;;;;4.15;2.33;;;11.50;99.90;;;;;;4899531;29;20521;-87
2022/03/14 02:50:35;;;;;;;3.97;2.58;;;11.40;99.90;;;;;;4900463;29;20036;-87
2022/03/14 02:53:00;;;;;;;3.88;2.38;;;11.40;99.90;;;;;;4899426;29;20028;-89
2022/03/14 02:55:26;;;;;;;3.60;2.40;;;11.40;99.90;;;;;;4899855;29;20104;-87
2022/03/14 02:57:52;;;;;;;4.90;2.80;;;11.40;99.90;;;;;;4900227;29;20025;-87
2022/03/14 03:00:19;;;;;;;3.03;2.42;;;11.40;99.90;;;;;;4900683;29;20049;-86
2022/03/14 03:02:45;;;;;;;4.00;2.60;;;11.20;99.90;;;;;;4899608;29;20097;-87
2022/03/14 03:05:11;;;;;;;3.88;2.30;;;11.00;99.90;;;;;;4899408;29;20032;-88
2022/03/14 03:07:36;;;;;;;3.67;2.83;;;10.80;99.90;;;;;;4899123;29;20070;-87
2022/03/14 03:10:04;;;;;;;3.65;2.55;;;10.60;99.90;;;;;;4899118;29;20033;-87
2022/03/14 03:12:31;;;;;;;3.42;2.63;;;10.40;99.90;;;;;;4898787;29;20048;-86
2022/03/14 03:14:58;;;;;;;5.65;3.42;;;10.30;99.90;;;;;;4883558;29;20420;-85
2022/03/14 03:17:24;;;;;;;4.15;2.67;;;10.30;99.90;;;;;;4883423;29;20039;-85
2022/03/14 03:19:49;;;;;;;4.68;3.20;;;10.30;99.90;;;;;;4898908;29;20496;-87
2022/03/14 03:22:15;;;;;;;4.65;3.20;;;10.20;99.90;;;;;;4899079;29;20132;-87
2022/03/14 03:24:41;;;;;;;4.57;2.88;;;10.20;99.90;;;;;;4900305;29;20068;-88
2022/03/14 03:27:09;;;;;;;4.10;2.72;;;10.20;99.90;;;;;;4900449;29;20076;-86
2022/03/14 03:29:35;;;;;;;3.92;2.80;;;10.20;99.90;;;;;;4899030;29;20037;-88
2022/03/14 03:32:01;;;;;;;4.03;2.95;;;10.20;99.90;;;;;;4899815;29;20033;-86
2022/03/14 03:34:26;;;;;;;4.95;3.10;;;10.30;99.90;;;;;;4882773;29;20127;-86
2022/03/14 03:36:52;;;;;;;4.63;3.13;;;10.30;99.90;;;;;;4898324;29;20033;-87
2022/03/14 03:39:19;;;;;;;4.22;3.22;;;10.30;99.90;;;;;;4899887;29;20484;-87
2022/03/14 03:41:45;;;;;;;3.78;2.60;;;10.30;99.90;;;;;;4883127;29;20041;-86
2022/03/14 03:44:10;;;;;;;5.10;2.70;;;10.30;99.90;;;;;;4899935;29;20040;-87
2022/03/14 03:46:36;;;;;;;4.10;2.63;;;10.40;99.90;;;;;;4900321;29;20056;-86
2022/03/14 03:49:03;;;;;;;4.82;2.90;;;10.40;99.90;;;;;;4899688;29;20036;-84
2022/03/14 03:51:30;;;;;;;3.75;2.50;;;10.40;99.90;;;;;;4900383;29;20390;-85
2022/03/14 03:53:57;;;;;;;4.50;3.20;;;10.40;99.90;;;;;;4901747;29;20063;-87
2022/03/14 03:56:22;;;;;;;6.68;4.22;;;10.50;99.90;;;;;;4899701;29;20045;-88
2022/03/14 03:58:48;;;;;;;4.65;3.50;;;10.50;99.90;;;;;;4899502;29;20040;-88
2022/03/14 04:01:21;;;;;;;5.32;3.65;;;10.50;99.90;;;;;;4899062;29;20052;-85
2022/03/14 04:03:53;;;;;;;5.07;3.72;;;10.50;99.90;;;;;;4898475;29;20123;-86
2022/03/14 04:06:20;;;;;;;5.47;4.00;;;10.50;99.90;;;;;;4898851;29;20040;-85
2022/03/14 04:08:46;;;;;;;4.70;3.08;;;10.50;99.90;;;;;;4898516;29;20387;-86
2022/03/14 04:11:13;;;;;;;6.18;3.22;;;10.50;99.90;;;;;;4897806;29;20044;-87
2022/03/14 04:13:38;;;;;;;4.53;3.08;;;10.60;99.90;;;;;;4898057;29;20033;-86
2022/03/14 04:16:04;;;;;;;4.45;3.28;;;10.60;99.90;;;;;;4897880;29;20044;-88
2022/03/14 04:18:30;;;;;;;5.13;3.10;;;10.60;99.90;;;;;;4899245;29;20033;-86
2022/03/14 04:20:57;;;;;;;4.63;3.42;;;10.60;99.90;;;;;;4897710;29;20144;-87
2022/03/14 04:23:23;;;;;;;4.80;3.78;;;10.60;99.90;;;;;;4898346;29;20031;-87
2022/03/14 04:25:48;;;;;;;6.00;3.47;;;10.60;99.90;;;;;;4899883;29;20133;-86
2022/03/14 04:28:15;;;;;;;4.80;3.17;;;10.60;99.90;;;;;;4899625;29;20032;-87
2022/03/14 04:30:42;;;;;;;4.43;3.15;;;10.60;99.90;;;;;;4884750;29;20119;-87
2022/03/14 04:33:08;;;;;;;6.10;3.58;;;10.60;99.90;;;;;;4900622;29;20093;-87
2022/03/14 04:35:35;;;;;;;4.40;3.38;;;10.60;99.90;;;;;;4901807;29;20124;-84
2022/03/14 04:38:06;;;;;;;5.38;3.30;;;10.60;99.90;;;;;;4900462;29;20033;-89
2022/03/14 04:40:35;;;;;;;5.63;3.15;;;10.60;99.90;;;;;;4899379;29;20112;-87
2022/03/14 04:43:08;;;;;;;5.78;3.60;;;10.60;99.90;;;;;;4901212;29;20036;-84
2022/03/14 04:45:36;;;;;;;4.13;2.95;;;10.60;99.90;;;;;;4907909;29;20517;-87
2022/03/14 04:48:03;;;;;;;4.03;2.97;;;10.60;99.90;;;;;;4902269;29;20089;-87
2022/03/14 04:50:29;;;;;;;3.15;2.50;;;10.60;99.90;;;;;;4902258;29;20066;-88
2022/03/14 04:52:55;;;;;;;3.20;2.30;;;10.60;99.90;;;;;;4899559;29;20033;-85
2022/03/14 04:55:21;;;;;;;5.55;3.28;;;10.60;99.90;;;;;;4899169;29;20052;-86
2022/03/14 04:57:47;;;;;;;4.15;2.85;;;10.60;99.90;;;;;;4900596;29;20489;-87
2022/03/14 05:00:13;;;;;;;5.10;3.83;;;10.50;99.90;;;;;;4903416;29;20094;-82
2022/03/14 05:02:38;;;;;;;5.82;4.72;;;10.50;99.90;;;;;;4912112;29;20033;-82
2022/03/14 05:05:05;;;;;;;5.80;4.53;;;10.30;99.90;;;;;;4914467;29;20037;-85
2022/03/14 05:07:30;;;;;;;6.72;5.20;;;10.10;99.90;;;;;;4911274;29;20096;-82
2022/03/14 05:09:56;;;;;;;7.53;6.25;;;9.90;99.90;;;;;;4915502;29;20036;-84
2022/03/14 05:12:22;;;;;;;6.30;5.47;;;9.70;99.90;;;;;;4919924;29;20033;-85
2022/03/14 05:14:51;;;;;;;8.00;6.03;;;9.50;99.90;;;;;;4919636;29;20036;-83
2022/03/14 05:17:17;;;;;;;6.55;5.60;;;9.30;99.90;;;;;;4919950;29;20036;-83
2022/03/14 05:19:43;;;;;;;6.70;5.18;;;9.30;99.90;;;;;;4924391;29;20047;-86
2022/03/14 05:22:09;;;;;;;7.00;5.68;;;9.20;99.90;;;;;;4922140;29;20044;-88
2022/03/14 05:24:35;;;;;;;7.30;5.93;;;9.10;99.90;;;;;;4923144;29;20016;-85
2022/03/14 05:27:01;;;;;;;7.20;6.22;;;9.10;99.90;;;;;;4919852;29;20032;-86
2022/03/14 05:29:27;;;;;;;8.63;6.20;;;9.10;99.90;;;;;;4921909;29;20062;-86
2022/03/14 05:31:53;;;;;;;9.00;7.05;;;9.10;99.90;;;;;;4915280;29;20391;-88
2022/03/14 05:34:19;;;;;;;9.82;8.10;;;9.10;99.90;;;;;;4905385;29;20483;-88
2022/03/14 05:36:45;;;;;;;8.65;7.65;;;9.00;99.90;;;;;;4903488;29;20092;-87
2022/03/14 05:39:10;;;;;;;9.30;7.50;;;9.00;99.90;;;;;;4901952;29;20470;-86
2022/03/14 05:41:36;;;;;;;9.38;8.38;;;9.00;99.90;;;;;;4903311;29;20087;-88
2022/03/14 05:44:02;;;;;;;11.82;9.77;;;9.00;99.90;;;;;;4902006;29;20195;-86
2022/03/14 05:46:28;;;;;;;11.45;9.98;;;9.00;99.90;;;;;;4900303;29;20089;-87
2022/03/14 05:48:53;;;;;;;13.25;11.68;;;9.00;99.90;;;;;;4900783;29;20122;-85
2022/03/14 05:51:19;;;;;;;14.25;12.07;;;9.00;99.90;;;;;;4899624;29;20040;-85
2022/03/14 05:53:45;;;;;;;15.43;13.15;;;9.00;99.90;;;;;;4900057;29;20407;-86
2022/03/14 05:56:10;;;;;;;13.43;12.02;;;9.00;99.90;;;;;;4901764;29;20483;-89
2022/03/14 05:58:36;;;;;;;15.48;13.75;;;9.00;99.90;;;;;;4899214;29;20033;-88
2022/03/14 06:01:02;;;;;;;14.40;12.65;;;9.00;99.90;;;;;;4897315;29;20064;-90
2022/03/14 06:03:27;;;;;;;14.60;12.65;;;9.00;99.90;;;;;;4897238;29;20121;-90
2022/03/14 06:05:53;;;;;;;16.52;12.98;;;9.00;99.90;;;;;;4897424;29;20040;-85
2022/03/14 06:08:19;;;;;;;13.82;11.98;;;9.00;99.90;;;;;;4897441;29;20039;-86
2022/03/14 06:10:46;;;;;;;15.60;11.85;;;9.10;99.90;;;;;;4897406;29;20123;-89
2022/03/14 06:13:15;;;;;;;14.65;11.80;;;9.10;99.90;;;;;;4900931;29;20726;-86
2022/03/14 06:15:42;;;;;;;12.88;11.18;;;9.10;99.90;;;;;;4901010;29;20044;-87
2022/03/14 06:18:08;;;;;;;15.45;11.95;;;9.10;99.90;;;;;;4901011;29;20040;-86
2022/03/14 06:20:36;;;;;;;12.65;11.27;;;9.10;99.90;;;;;;4902665;29;20092;-86
2022/03/14 06:23:02;;;;;;;13.50;11.32;;;9.20;99.90;;;;;;4927119;29;20044;-85
2022/03/14 06:25:28;;;;;;;13.45;11.15;;;9.20;99.90;;;;;;4918252;29;20032;-85
2022/03/14 06:27:53;;;;;;;15.85;12.45;;;9.20;99.90;;;;;;4904427;29;20029;-83
2022/03/14 06:30:19;;;;;;;12.93;10.93;;;9.20;99.90;;;;;;4904869;29;20487;-84
2022/03/14 06:32:47;;;;;;;14.43;12.10;;;9.20;99.90;;;;;;4918758;29;20039;-85
2022/03/14 06:35:14;;;;;;;14.48;11.77;;;9.30;99.90;;;;;;4919056;29;20479;-85
2022/03/14 06:37:40;;;;;;;18.20;12.90;;;9.30;99.90;;;;;;4919046;29;20032;-87
2022/03/14 06:40:07;;;;;;;15.20;11.77;;;9.30;99.90;;;;;;4899786;29;20124;-85
2022/03/14 06:42:38;;;;;;;14.80;11.10;;;9.30;99.90;;;;;;4884161;29;20028;-85
2022/03/14 06:45:04;;;;;;;15.48;11.95;;;9.30;99.90;;;;;;4900408;29;20119;-85
2022/03/14 06:47:32;;;;;;;15.35;11.38;;;9.40;99.90;;;;;;4900830;29;20506;-86
2022/03/14 06:49:58;;;;;;;14.40;11.88;;;9.40;99.90;;;;;;4892062;29;20117;-86
2022/03/14 06:52:23;;;;;;;15.35;11.98;;;9.40;99.90;;;;;;4899191;29;20495;-85
2022/03/14 06:54:49;;;;;;;14.50;11.98;;;9.40;99.90;;;;;;4897133;29;20096;-86
2022/03/14 06:57:17;;;;;;;16.40;13.07;;;9.40;99.90;;;;;;4899020;29;20080;-87
2022/03/14 06:59:42;;;;;;;15.85;13.10;;;9.40;99.90;;;;;;4899977;29;20029;-86
2022/03/14 07:02:08;;;;;;;15.27;13.00;;;9.50;99.90;;;;;;4899690;29;20055;-87
2022/03/14 07:04:34;;;;;;;17.35;13.35;;;9.50;99.90;;;;;;4915417;29;20107;-84
2022/03/14 07:07:03;;;;;;;15.50;12.60;;;9.50;99.90;;;;;;4914086;29;20041;-86
2022/03/14 07:09:34;;;;;;;16.17;13.07;;;9.50;99.90;;;;;;4907736;29;20032;-87
2022/03/14 07:11:59;;;;;;;16.45;11.90;;;9.50;99.90;;;;;;4906473;29;20096;-86
2022/03/14 07:14:25;;;;;;;14.38;11.88;;;9.50;99.90;;;;;;4914488;29;20052;-88
2022/03/14 07:16:51;;;;;;;17.75;11.98;;;9.60;99.90;;;;;;4900030;29;20092;-85
2022/03/14 07:19:17;;;;;;;14.55;12.40;;;9.60;99.90;;;;;;4899079;29;20076;-86
2022/03/14 07:21:42;;;;;;;16.55;12.32;;;9.60;99.90;;;;;;4883168;29;20083;-87
2022/03/14 07:24:08;;;;;;;16.45;13.00;;;9.60;99.90;;;;;;4912535;29;20042;-88
2022/03/14 07:26:34;;;;;;;16.30;13.75;;;9.60;99.90;;;;;;4917626;29;20040;-85
2022/03/14 07:29:01;;;;;;;17.52;13.80;;;9.60;99.90;;;;;;4887019;29;20020;-86
2022/03/14 07:31:27;;;;;;;18.73;14.48;;;9.70;99.90;;;;;;4901936;29;20040;-87
2022/03/14 07:33:52;;;;;;;16.75;13.45;;;9.60;99.90;;;;;;4919287;29;20043;-87
2022/03/14 07:36:19;;;;;;;18.33;14.75;;;9.60;99.90;;;;;;4918587;29;20040;-85
2022/03/14 07:38:46;;;;;;;16.75;13.82;;;9.60;99.90;;;;;;4884699;29;20029;-87
2022/03/14 07:41:12;;;;;;;17.38;14.60;;;9.60;99.90;;;;;;4897368;29;20055;-86
2022/03/14 07:43:38;;;;;;;20.63;16.13;;;9.70;99.90;;;;;;4882892;29;20406;-87
2022/03/14 07:46:05;;;;;;;18.83;15.30;;;9.70;99.90;;;;;;4892346;29;20443;-87
2022/03/14 07:48:32;;;;;;;19.15;15.07;;;9.70;99.90;;;;;;4881629;29;20037;-89
2022/03/14 07:50:57;;;;;;;20.42;14.63;;;9.70;99.90;;;;;;4897565;29;20045;-87
2022/03/14 07:53:23;;;;;;;18.77;14.85;;;9.70;99.90;;;;;;4886424;29;20052;-87
2022/03/14 07:55:49;;;;;;;21.23;15.20;;;9.70;99.90;;;;;;4897878;29;20036;-88
2022/03/14 07:58:15;;;;;;;21.50;16.17;;;9.80;99.90;;;;;;4898120;29;20067;-85
2022/03/14 08:00:40;;;;;;;18.85;14.80;;;9.80;99.90;;;;;;4899289;29;20043;-87
2022/03/14 08:03:06;;;;;;;22.65;17.33;;;9.80;99.90;;;;;;4896562;29;20036;-84
2022/03/14 08:05:33;;;;;;;22.20;17.00;;;9.80;99.90;;;;;;4889692;29;20067;-87
2022/03/14 08:08:00;;;;;;;20.15;16.05;;;9.80;99.90;;;;;;4895213;29;20040;-86
2022/03/14 08:10:26;;;;;;;20.25;15.93;;;9.90;99.90;;;;;;4884020;29;20045;-87
2022/03/14 08:12:54;;;;;;;22.73;17.77;;;9.90;99.90;;;;;;4899088;29;20495;-86
2022/03/14 08:15:26;;;;;;;23.00;18.48;;;9.90;99.90;;;;;;4882089;29;20036;-85
2022/03/14 08:17:53;;;;;;;23.58;18.40;;;9.90;99.90;;;;;;4882712;29;20064;-86
2022/03/14 08:20:19;;;;;;;23.13;18.10;;;9.90;99.90;;;;;;4892971;29;20043;-87
2022/03/14 08:22:46;;;;;;;24.38;18.40;;;9.90;99.90;;;;;;4898858;29;20115;-84
2022/03/14 08:25:12;;;;;;;23.02;19.60;;;10.10;99.90;;;;;;4900610;29;20395;-87
2022/03/14 08:27:39;;;;;;;21.92;19.35;;;10.10;99.90;;;;;;4907661;29;20044;-86
2022/03/14 08:30:05;;;;;;;25.08;18.92;;;10.10;99.90;;;;;;4900058;29;20495;-87
2022/03/14 08:32:32;;;;;;;24.85;18.92;;;10.20;99.90;;;;;;4900498;29;20024;-85
2022/03/14 08:35:07;;;;;;;25.83;20.58;;;10.30;99.90;;;;;;4901533;29;20029;-87
2022/03/14 08:37:34;;;;;;;25.98;19.83;;;10.20;99.90;;;;;;4900712;29;20075;-86
2022/03/14 08:39:59;;;;;;;24.88;20.83;;;10.20;99.90;;;;;;4899956;29;20036;-86
2022/03/14 08:42:25;;;;;;;24.63;20.25;;;10.20;99.90;;;;;;4901431;29;20037;-86
2022/03/14 08:44:51;;;;;;;26.95;19.83;;;10.20;99.90;;;;;;4898233;29;20045;-85
2022/03/14 08:47:16;;;;;;;24.02;20.02;;;10.20;99.90;;;;;;4904646;29;20047;-85
2022/03/14 08:49:42;;;;;;;24.92;20.30;;;10.20;99.90;;;;;;4907612;29;20033;-86
2022/03/14 08:52:07;;;;;;;24.65;19.98;;;10.20;99.90;;;;;;4911458;29;20028;-86
2022/03/14 08:54:34;;;;;;;23.42;19.75;;;10.30;99.90;;;;;;4900071;29;20464;-86
2022/03/14 08:56:59;;;;;;;25.05;20.13;;;10.30;99.90;;;;;;4909988;29;20041;-87
2022/03/14 08:59:25;;;;;;;24.95;21.20;;;10.30;99.90;;;;;;4886817;29;20037;-86
2022/03/14 09:01:51;;;;;;;21.15;18.23;;;10.40;99.90;;;;;;4888982;29;20047;-87
2022/03/14 09:04:17;;;;;;;23.23;19.40;;;10.40;99.90;;;;;;4916216;29;20035;-87
2022/03/14 09:06:43;;;;;;;27.15;19.75;;;10.40;99.90;;;;;;4903498;29;20048;-87
2022/03/14 09:09:09;;;;;;;25.05;20.50;;;10.50;99.90;;;;;;4907176;29;20028;-86
2022/03/14 09:11:34;;;;;;;24.90;19.52;;;10.40;99.90;;;;;;4901509;29;20051;-88
2022/03/14 09:14:00;;;;;;;21.98;18.92;;;10.40;99.90;;;;;;4913403;29;20040;-88
2022/03/14 09:16:26;;;;;;;26.55;19.77;;;10.50;99.90;;;;;;4921768;29;20523;-88
2022/03/14 09:18:52;;;;;;;26.88;20.45;;;10.40;99.90;;;;;;4901481;29;20120;-87
2022/03/14 09:21:19;;;;;;;27.25;21.20;;;10.40;99.90;;;;;;4902844;29;20047;-88
2022/03/14 09:23:45;;;;;;;25.50;21.00;;;10.40;99.90;;;;;;4909130;29;20099;-88
2022/03/14 09:26:11;;;;;;;25.95;21.98;;;10.40;99.90;;;;;;4921590;29;20032;-88
2022/03/14 09:28:40;;;;;;;27.33;20.80;;;10.50;99.90;;;;;;4918530;29;20035;-87
2022/03/14 09:31:05;;;;;;;27.60;21.52;;;10.50;99.90;;;;;;4901947;29;20077;-87
2022/03/14 09:33:31;;;;;;;27.50;21.00;;;10.60;99.90;;;;;;4885356;29;20045;-89
2022/03/14 09:35:57;;;;;;;25.00;20.88;;;10.70;99.90;;;;;;4913364;29;20071;-86
2022/03/14 09:38:24;;;;;;;28.15;22.58;;;10.70;99.90;;;;;;4900101;29;20488;-86
2022/03/14 09:40:52;;;;;;;31.10;23.52;;;10.70;99.90;;;;;;4899957;29;20092;-85
2022/03/14 09:43:18;;;;;;;29.70;21.92;;;10.70;99.90;;;;;;4887304;29;20032;-85
2022/03/14 09:45:48;;;;;;;29.90;23.42;;;10.70;99.90;;;;;;4884242;29;20064;-88
2022/03/14 09:48:17;;;;;;;30.15;22.55;;;10.70;99.90;;;;;;4912778;29;20083;-85
2022/03/14 09:50:45;;;;;;;28.25;22.80;;;10.70;99.90;;;;;;4915928;29;20368;-85
2022/03/14 09:53:14;;;;;;;27.75;21.83;;;10.80;99.90;;;;;;4904592;29;20036;-84
2022/03/14 09:55:42;;;;;;;27.00;22.10;;;10.80;99.90;;;;;;4897518;29;20045;-87
2022/03/14 09:58:17;;;;;;;25.83;20.85;;;10.90;99.90;;;;;;4900281;29;20044;-88
2022/03/14 10:00:43;;;;;;;29.92;24.50;;;10.90;99.90;;;;;;4898446;29;20064;-87
2022/03/14 10:03:10;;;;;;;26.63;22.15;;;10.90;99.90;;;;;;4900195;29;20526;-86
2022/03/14 10:05:36;;;;;;;28.40;21.98;;;11.00;99.90;;;;;;4909418;29;20123;-85
2022/03/14 10:08:02;;;;;;;32.55;23.67;;;11.00;99.90;;;;;;4919862;29;20039;-85
2022/03/14 10:10:28;;;;;;;28.25;22.45;;;11.00;99.90;;;;;;4903549;29;20222;-86
2022/03/14 10:12:57;;;;;;;28.45;22.15;;;11.00;99.90;;;;;;4902759;29;20040;-85
2022/03/14 10:15:27;;;;;;;27.20;23.42;;;11.10;99.90;;;;;;4919912;29;20048;-84
2022/03/14 10:17:57;;;;;;;34.47;23.05;;;11.10;99.90;;;;;;4903364;29;20067;-86
2022/03/14 10:20:24;;;;;;;27.48;22.65;;;11.20;99.90;;;;;;4919848;29;20040;-85
2022/03/14 10:22:50;;;;;;;29.55;22.63;;;11.10;99.90;;;;;;4918412;29;20119;-87
2022/03/14 10:25:19;;;;;;;29.42;23.40;;;11.10;99.90;;;;;;4920232;29;20036;-87
2022/03/14 10:27:47;;;;;;;28.20;21.95;;;11.00;99.90;;;;;;4920331;29;20398;-88
2022/03/14 10:30:31;;;;;;;27.92;22.30;;;11.10;99.90;;;;;;4902938;29;20546;-86
2022/03/14 10:33:01;;;;;;;24.08;20.83;;;11.10;99.90;;;;;;4884533;29;20472;-87
2022/03/14 10:35:32;;;;;;;27.35;21.38;;;11.30;99.90;;;;;;4884330;29;20033;-87
2022/03/14 10:38:02;;;;;;;25.70;21.00;;;11.50;99.90;;;;;;4901020;29;20040;-86
2022/03/14 10:40:37;;;;;;;24.92;20.20;;;11.60;99.90;;;;;;4900851;29;20075;-86
2022/03/14 10:43:08;;;;;;;27.17;22.98;;;11.70;99.90;;;;;;4898910;29;20040;-86
2022/03/14 10:45:34;;;;;;;25.33;20.77;;;11.70;99.90;;;;;;4883660;29;20483;-85
2022/03/14 10:48:03;;;;;;;26.67;20.67;;;11.60;99.90;;;;;;4899792;29;20048;-84
2022/03/14 10:50:37;;;;;;;25.80;22.05;;;11.60;99.90;;;;;;4900151;29;20033;-84
2022/03/14 10:53:19;;;;;;;25.13;21.42;;;11.60;99.90;;;;;;4886909;29;20056;-88
2022/03/14 10:55:47;;;;;;;28.02;21.13;;;11.50;99.90;;;;;;4919292;29;20044;-87
2022/03/14 10:58:21;;;;;;;26.58;22.15;;;11.70;99.90;;;;;;4902363;29;20059;-87
2022/03/14 11:00:56;;;;;;;23.92;20.13;;;11.80;99.90;;;;;;4900644;29;20037;-85
2022/03/14 11:03:41;;;;;;;23.90;19.80;;;11.90;99.90;;;;;;4911192;29;20096;-86
2022/03/14 11:06:11;;;;;;;28.23;20.65;;;12.00;99.90;;;;;;4909400;29;20039;-86
2022/03/14 11:08:39;;;;;;;24.13;20.80;;;12.10;99.90;;;;;;4912065;29;20067;-84
2022/03/14 11:11:10;;;;;;;22.27;18.80;;;12.10;99.90;;;;;;4898370;29;20103;-86
2022/03/14 11:13:40;;;;;;;25.38;19.80;;;12.20;99.90;;;;;;4896151;29;20033;-87
2022/03/14 11:16:34;;;;;;;24.75;19.55;;;12.30;99.90;;;;;;4879731;29;20037;-88
2022/03/14 11:18:59;;;;;;;22.80;18.42;;;12.30;99.90;;;;;;4896921;29;20144;-85
2022/03/14 11:21:27;;;;;;;25.25;19.42;;;12.20;99.90;;;;;;4898500;29;20506;-87
2022/03/14 11:23:54;;;;;;;19.77;16.83;;;12.20;99.90;;;;;;4908776;29;20036;-87
2022/03/14 11:26:22;;;;;;;22.52;17.35;;;12.10;99.90;;;;;;4899941;29;20051;-87
2022/03/14 11:28:49;;;;;;;21.20;16.02;;;12.00;99.90;;;;;;4888351;29;20064;-87
2022/03/14 11:31:18;;;;;;;18.40;16.00;;;11.90;99.90;;;;;;4897808;29;20056;-85
2022/03/14 11:33:46;;;;;;;20.27;16.27;;;12.10;99.90;;;;;;4898997;29;20128;-86
2022/03/14 11:36:12;;;;;;;20.13;15.63;;;12.20;99.90;;;;;;4911225;29;20040;-88
2022/03/14 11:38:38;;;;;;;18.48;15.20;;;12.30;99.90;;;;;;4919800;29;20032;-86
2022/03/14 11:41:05;;;;;;;22.08;15.13;;;12.40;99.90;;;;;;4900638;29;20652;-85
2022/03/14 11:43:31;;;;;;;17.67;14.23;;;12.50;99.90;;;;;;4901691;29;20051;-86
2022/03/14 11:46:00;;;;;;;20.17;14.93;;;12.70;99.90;;;;;;4899804;29;20543;-87
2022/03/14 11:48:31;;;;;;;15.55;13.35;;;12.90;99.90;;;;;;4898390;29;20055;-89
2022/03/14 11:51:03;;;;;;;14.18;12.52;;;13.20;99.90;;;;;;4917017;29;20091;-87
2022/03/14 11:53:32;;;;;;;16.00;13.32;;;13.20;99.90;;;;;;4917887;29;20109;-89
2022/03/14 11:56:05;;;;;;;19.90;13.32;;;13.30;99.90;;;;;;4901272;29;20048;-88
2022/03/14 11:58:49;;;;;;;15.50;13.02;;;13.20;99.90;;;;;;4901327;29;20123;-89
2022/03/14 12:01:28;;;;;;;15.40;12.50;;;13.20;99.90;;;;;;4901146;29;20090;-87
2022/03/14 12:03:56;;;;;;;16.38;12.13;;;13.30;99.90;;;;;;4918457;29;20140;-85
2022/03/14 12:06:57;;;;;;;17.85;12.40;;;14.10;99.90;;;;;;4918614;29;20037;-86
2022/03/14 12:09:26;;;;;;;14.75;11.40;;;14.20;99.90;;;;;;4879272;29;20040;-85
2022/03/14 12:11:56;;;;;;;16.25;12.82;;;13.80;99.90;;;;;;4904663;29;20135;-83
2022/03/14 12:14:47;;;;;;;19.52;13.35;;;13.50;99.90;;;;;;4900477;29;20080;-85
2022/03/14 12:17:13;;;;;;;20.60;11.63;;;14.10;99.90;;;;;;4900292;29;20047;-86
2022/03/14 12:19:58;;;;;;;14.15;10.55;;;15.10;99.90;;;;;;4898225;29;20040;-85
2022/03/14 12:22:37;;;;;;;15.10;10.13;;;15.30;99.90;;;;;;4882400;29;20495;-85
2022/03/14 12:25:05;;;;;;;16.02;10.50;;;15.10;99.90;;;;;;4916306;29;20083;-87
2022/03/14 12:27:36;;;;;;;15.45;10.98;;;15.80;99.90;;;;;;4899973;29;20080;-88
2022/03/14 12:30:15;;;;;;;13.52;10.40;;;16.90;99.90;;;;;;4917050;29;20040;-86
2022/03/14 12:32:49;;;;;;;15.15;8.82;;;17.60;99.90;;;;;;4915290;29;20036;-86
2022/03/14 12:35:18;;;;;;;11.25;8.07;;;18.50;99.90;;;;;;4907293;29;20037;-87
2022/03/14 12:37:55;;;;;;;11.77;8.68;;;18.40;99.90;;;;;;4896802;29;20041;-86
2022/03/14 12:40:21;;;;;;;15.38;8.75;;;18.30;99.90;;;;;;4898331;29;20043;-84